createdAt,value
2023-06-20T00:00:14.660Z,22.18
2023-06-20T00:03:18.023Z,22.19
2023-06-20T00:06:23.518Z,22.19
2023-06-20T00:09:26.399Z,22.23
2023-06-20T00:12:29.185Z,22.28
2023-06-20T00:15:32.428Z,22.36
2023-06-20T00:18:35.212Z,22.41
2023-06-20T00:21:41.168Z,22.47
2023-06-20T00:24:44.003Z,22.53
2023-06-20T00:27:46.920Z,22.60
2023-06-20T00:30:51.004Z,22.69
2023-06-20T00:33:53.869Z,22.79
2023-06-20T00:36:58.749Z,22.91
2023-06-20T00:40:01.746Z,23.05
2023-06-20T00:43:05.188Z,23.27
2023-06-20T00:46:08.025Z,23.52
2023-06-20T00:49:12.529Z,23.49
2023-06-20T00:52:18.637Z,23.33
2023-06-20T00:55:21.505Z,23.17
2023-06-20T00:58:24.207Z,22.97
2023-06-20T01:01:32.884Z,22.76
2023-06-20T01:04:35.877Z,22.60
2023-06-20T01:07:47.083Z,22.55
2023-06-20T01:11:04.264Z,22.39
2023-06-20T01:14:14.090Z,22.17
2023-06-20T01:17:22.380Z,22.05
2023-06-20T01:20:29.977Z,22.10
2023-06-20T01:23:36.841Z,22.06
2023-06-20T01:26:47.855Z,22.05
2023-06-20T01:29:59.622Z,22.02
2023-06-20T01:33:05.199Z,21.93
2023-06-20T01:36:10.647Z,21.86
2023-06-20T01:39:19.074Z,21.76
2023-06-20T01:42:25.821Z,21.76
2023-06-20T01:45:30.615Z,21.75
2023-06-20T01:48:35.914Z,21.77
2023-06-20T01:51:38.986Z,21.70
2023-06-20T01:54:47.675Z,21.67
2023-06-20T01:57:54.426Z,21.63
2023-06-20T02:00:59.928Z,21.58
2023-06-20T02:04:04.437Z,21.53
2023-06-20T02:07:09.451Z,21.58
2023-06-20T02:10:15.935Z,21.55
2023-06-20T02:13:20.098Z,21.55
2023-06-20T02:16:24.349Z,21.61
2023-06-20T02:19:27.200Z,21.60
2023-06-20T02:22:30.960Z,21.61
2023-06-20T02:25:37.037Z,21.61
2023-06-20T02:28:43.392Z,21.70
2023-06-20T02:31:49.995Z,21.74
2023-06-20T02:34:55.292Z,21.62
2023-06-20T02:38:01.154Z,21.65
2023-06-20T02:41:05.658Z,21.63
2023-06-20T02:44:08.479Z,21.58
2023-06-20T02:47:22.875Z,21.47
2023-06-20T02:50:30.979Z,21.38
2023-06-20T02:53:43.975Z,21.30
2023-06-20T02:56:54.383Z,21.30
2023-06-20T03:00:06.125Z,21.13
2023-06-20T03:03:12.102Z,21.09
2023-06-20T03:06:18.039Z,21.15
2023-06-20T03:09:22.988Z,21.18
2023-06-20T03:12:27.110Z,21.18
2023-06-20T03:15:29.828Z,21.13
2023-06-20T03:18:32.559Z,21.15
2023-06-20T03:21:35.286Z,21.11
2023-06-20T03:24:38.078Z,21.13
2023-06-20T03:27:42.239Z,21.09
2023-06-20T03:30:45.174Z,21.02
2023-06-20T03:33:47.897Z,21.01
2023-06-20T03:36:50.639Z,20.96
2023-06-20T03:39:53.365Z,20.92
2023-06-20T03:42:57.782Z,20.83
2023-06-20T03:46:00.753Z,20.81
2023-06-20T03:49:03.598Z,20.78
2023-06-20T03:52:07.515Z,20.72
2023-06-20T03:55:10.815Z,20.63
2023-06-20T03:58:14.930Z,20.62
2023-06-20T04:01:17.754Z,20.62
2023-06-20T04:04:20.694Z,20.60
2023-06-20T04:07:23.652Z,20.53
2023-06-20T04:10:26.464Z,20.47
2023-06-20T04:13:30.632Z,20.46
2023-06-20T04:16:33.393Z,20.46
2023-06-20T04:19:36.057Z,20.46
2023-06-20T04:22:41.975Z,20.48
2023-06-20T04:25:44.734Z,20.48
2023-06-20T04:28:48.814Z,20.58
2023-06-20T04:31:53.544Z,20.63
2023-06-20T04:34:56.333Z,20.64
2023-06-20T04:38:02.703Z,20.70
2023-06-20T04:41:05.472Z,20.81
2023-06-20T04:44:09.881Z,20.86
2023-06-20T04:47:14.135Z,20.91
2023-06-20T04:50:17.125Z,20.93
2023-06-20T04:53:21.001Z,20.97
2023-06-20T04:56:23.897Z,20.99
2023-06-20T04:59:28.074Z,21.01
2023-06-20T05:02:31.033Z,21.02
2023-06-20T05:05:34.041Z,21.07
2023-06-20T05:08:37.117Z,21.08
2023-06-20T05:11:40.037Z,21.11
2023-06-20T05:14:44.713Z,21.18
2023-06-20T05:17:47.459Z,21.32
2023-06-20T05:20:51.696Z,21.51
2023-06-20T05:23:54.572Z,21.60
2023-06-20T05:26:57.375Z,21.70
2023-06-20T05:30:01.617Z,21.79
2023-06-20T05:33:04.392Z,21.81
2023-06-20T05:36:07.472Z,21.88
2023-06-20T05:39:10.656Z,21.95
2023-06-20T05:42:13.866Z,21.98
2023-06-20T05:45:18.269Z,22.10
2023-06-20T05:48:25.188Z,22.17
2023-06-20T05:51:29.165Z,22.22
2023-06-20T05:54:32.952Z,22.32
2023-06-20T05:57:38.486Z,22.39
2023-06-20T06:00:43.940Z,22.43
2023-06-20T06:03:49.413Z,22.57
2023-06-20T06:06:52.414Z,22.66
2023-06-20T06:09:55.267Z,22.80
2023-06-20T06:12:58.180Z,22.80
2023-06-20T06:16:02.370Z,22.87
2023-06-20T06:19:05.384Z,22.85
2023-06-20T06:22:08.323Z,22.88
2023-06-20T06:25:11.464Z,22.92
2023-06-20T06:28:14.496Z,22.89
2023-06-20T06:31:25.575Z,23.05
2023-06-20T06:34:28.700Z,23.26
2023-06-20T06:37:31.834Z,23.33
2023-06-20T06:40:34.853Z,23.41
2023-06-20T06:43:37.691Z,23.52
2023-06-20T06:46:42.139Z,23.59
2023-06-20T06:49:45.002Z,23.68
2023-06-20T06:52:47.995Z,23.86
2023-06-20T06:55:50.892Z,24.03
2023-06-20T06:58:57.619Z,24.23
2023-06-20T07:02:01.874Z,24.31
2023-06-20T07:05:05.942Z,24.50
2023-06-20T07:08:08.911Z,24.68
2023-06-20T07:11:11.817Z,24.91
2023-06-20T07:14:14.744Z,25.13
2023-06-20T07:17:19.079Z,25.24
2023-06-20T07:20:21.996Z,25.27
2023-06-20T07:23:25.070Z,25.44
2023-06-20T07:26:27.812Z,25.71
2023-06-20T07:29:30.643Z,25.85
2023-06-20T07:32:35.085Z,26.07
2023-06-20T07:35:37.999Z,26.28
2023-06-20T07:38:40.720Z,26.47
2023-06-20T07:41:43.401Z,26.49
2023-06-20T07:44:46.048Z,26.51
2023-06-20T07:47:50.248Z,26.49
2023-06-20T07:50:53.003Z,26.61
2023-06-20T07:53:55.812Z,26.68
2023-06-20T07:56:58.570Z,26.50
2023-06-20T08:00:01.740Z,26.58
2023-06-20T08:03:06.024Z,26.63
2023-06-20T08:06:08.862Z,26.74
2023-06-20T08:09:11.821Z,26.90
2023-06-20T08:12:14.630Z,27.10
2023-06-20T08:15:17.433Z,27.03
2023-06-20T08:18:21.647Z,27.01
2023-06-20T08:21:24.359Z,27.09
2023-06-20T08:24:27.094Z,26.95
2023-06-20T08:27:29.860Z,26.89
2023-06-20T08:30:32.837Z,26.96
2023-06-20T08:33:37.011Z,27.10
2023-06-20T08:36:40.250Z,27.12
2023-06-20T08:39:43.335Z,27.26
2023-06-20T08:42:46.100Z,27.22
2023-06-20T08:50:08.358Z,27.81
2023-06-20T08:53:11.560Z,27.95
2023-06-20T08:56:15.054Z,28.12
2023-06-20T08:59:22.090Z,28.23
2023-06-20T09:02:24.945Z,28.48
2023-06-20T09:05:32.917Z,28.61
2023-06-20T09:08:37.686Z,28.68
2023-06-20T09:11:40.469Z,28.80
2023-06-20T09:14:43.343Z,28.82
2023-06-20T09:17:46.618Z,28.94
2023-06-20T09:20:50.773Z,28.93
2023-06-20T09:24:03.486Z,29.01
2023-06-20T09:27:06.602Z,29.19
2023-06-20T09:30:10.306Z,29.27
2023-06-20T09:33:15.568Z,29.27
2023-06-20T09:36:19.921Z,29.40
2023-06-20T09:39:22.686Z,29.37
2023-06-20T09:42:25.528Z,29.42
2023-06-20T09:45:28.422Z,29.65
2023-06-20T09:48:33.988Z,29.87
2023-06-20T09:51:44.606Z,30.09
2023-06-20T09:54:57.026Z,30.07
2023-06-20T09:58:01.984Z,30.10
2023-06-20T10:01:06.224Z,30.03
2023-06-20T10:04:09.752Z,29.98
2023-06-20T10:07:15.948Z,30.26
2023-06-20T10:10:19.878Z,30.51
2023-06-20T10:13:23.132Z,30.52
2023-06-20T10:16:30.217Z,30.45
2023-06-20T10:19:48.902Z,30.66
2023-06-20T10:22:53.317Z,30.86
2023-06-20T10:25:59.254Z,31.07
2023-06-20T10:29:04.175Z,30.96
2023-06-20T10:32:08.535Z,30.94
2023-06-20T10:35:16.935Z,31.11
2023-06-20T10:38:21.127Z,31.33
2023-06-20T10:41:25.475Z,31.37
2023-06-20T10:44:30.356Z,31.22
2023-06-20T10:47:34.670Z,31.39
2023-06-20T10:50:40.265Z,31.41
2023-06-20T10:53:44.623Z,31.65
2023-06-20T10:56:48.091Z,31.78
2023-06-20T10:59:52.025Z,31.85
2023-06-20T11:02:56.391Z,31.81
2023-06-20T11:05:59.348Z,31.84
2023-06-20T11:09:04.158Z,31.89
2023-06-20T11:12:08.780Z,31.82
2023-06-20T11:15:22.868Z,31.67
2023-06-20T11:18:25.639Z,31.56
2023-06-20T11:21:29.493Z,31.66
2023-06-20T11:24:36.637Z,31.70
2023-06-20T11:27:39.953Z,31.77
2023-06-20T11:30:44.809Z,31.90
2023-06-20T11:36:51.939Z,32.14
2023-06-20T11:39:56.448Z,32.30
2023-06-20T11:42:59.844Z,32.28
2023-06-20T11:46:03.305Z,32.21
2023-06-20T11:49:06.210Z,32.05
2023-06-20T11:52:10.190Z,32.10
2023-06-20T11:55:14.365Z,32.19
2023-06-20T11:58:17.650Z,32.16
2023-06-20T12:01:25.061Z,32.01
2023-06-20T12:04:27.993Z,32.05
2023-06-20T12:07:30.761Z,31.97
2023-06-20T12:10:35.555Z,32.02
2023-06-20T12:13:45.967Z,32.23
2023-06-20T12:16:49.546Z,32.30
2023-06-20T12:19:53.118Z,32.29
2023-06-20T12:22:55.908Z,32.31
2023-06-20T12:26:00.095Z,32.48
2023-06-20T12:29:02.957Z,32.67
2023-06-20T12:32:06.394Z,32.81
2023-06-20T12:35:10.406Z,32.96
2023-06-20T12:38:13.475Z,32.78
2023-06-20T12:41:18.714Z,32.74
2023-06-20T12:44:21.409Z,32.74
2023-06-20T12:47:24.224Z,32.73
2023-06-20T12:50:27.220Z,32.46
2023-06-20T12:53:30.140Z,32.50
2023-06-20T12:56:35.332Z,32.57
2023-06-20T12:59:38.042Z,32.65
2023-06-20T13:02:41.131Z,32.69
2023-06-20T13:05:44.183Z,32.53
2023-06-20T13:08:46.905Z,32.67
2023-06-20T13:11:51.153Z,32.88
2023-06-20T13:15:06.666Z,33.08
2023-06-20T13:18:13.442Z,33.14
2023-06-20T13:21:17.711Z,32.90
2023-06-20T13:24:20.646Z,32.70
2023-06-20T13:27:26.496Z,32.79
2023-06-20T13:30:29.621Z,32.61
2023-06-20T13:33:32.470Z,32.63
2023-06-20T13:36:35.280Z,32.88
2023-06-20T13:39:38.091Z,32.96
2023-06-20T13:42:45.412Z,32.76
2023-06-20T13:45:48.428Z,32.74
2023-06-20T13:48:52.498Z,32.94
2023-06-20T13:51:55.695Z,33.08
2023-06-20T13:54:58.409Z,33.24
2023-06-20T13:58:03.941Z,33.41
2023-06-20T14:01:07.302Z,33.53
2023-06-20T14:04:10.230Z,33.59
2023-06-20T14:07:13.405Z,33.60
2023-06-20T14:10:16.256Z,33.68
2023-06-20T14:13:20.650Z,33.63
2023-06-20T14:16:24.574Z,33.57
2023-06-20T14:19:27.895Z,33.64
2023-06-20T14:22:30.670Z,33.75
2023-06-20T14:25:33.540Z,33.85
2023-06-20T14:28:37.667Z,33.92
2023-06-20T14:31:40.402Z,33.95
2023-06-20T14:34:44.913Z,33.95
2023-06-20T14:37:47.664Z,33.99
2023-06-20T14:40:50.384Z,33.87
2023-06-20T14:43:54.687Z,33.61
2023-06-20T14:46:57.744Z,33.57
2023-06-20T14:50:00.527Z,33.67
2023-06-20T14:53:03.200Z,33.52
2023-06-20T14:56:06.083Z,33.30
2023-06-20T14:59:11.045Z,33.33
2023-06-20T15:02:13.792Z,33.20
2023-06-20T15:05:16.681Z,32.93
2023-06-20T15:08:19.393Z,32.68
2023-06-20T15:11:22.064Z,32.51
2023-06-20T15:14:26.408Z,32.36
2023-06-20T15:17:29.691Z,32.22
2023-06-20T15:20:32.749Z,32.10
2023-06-20T15:23:35.811Z,32.14
2023-06-20T15:26:38.672Z,32.30
2023-06-20T15:29:42.777Z,32.52
2023-06-20T15:32:46.049Z,32.69
2023-06-20T15:35:48.913Z,32.86
2023-06-20T15:38:51.680Z,33.07
2023-06-20T15:41:54.419Z,33.23
2023-06-20T15:44:59.507Z,33.28
2023-06-20T15:48:02.271Z,33.28
2023-06-20T15:51:05.075Z,33.39
2023-06-20T15:54:07.879Z,33.39
2023-06-20T15:57:11.289Z,33.41
2023-06-20T16:00:17.119Z,33.27
2023-06-20T16:03:20.042Z,33.28
2023-06-20T16:06:22.936Z,33.33
2023-06-20T16:09:25.805Z,33.30
2023-06-20T16:12:28.545Z,33.30
2023-06-20T16:15:32.685Z,33.27
2023-06-20T16:18:35.407Z,33.10
2023-06-20T16:21:38.101Z,33.06
2023-06-20T16:24:42.770Z,33.01
2023-06-20T16:27:45.671Z,32.91
2023-06-20T16:30:50.180Z,32.71
2023-06-20T16:33:53.028Z,32.59
2023-06-20T16:36:55.789Z,32.45
2023-06-20T16:39:58.927Z,32.47
2023-06-20T16:43:03.225Z,32.69
2023-06-20T16:46:09.887Z,32.75
2023-06-20T16:49:12.763Z,32.69
2023-06-20T16:52:15.580Z,32.60
2023-06-20T16:55:18.483Z,32.56
2023-06-20T16:58:21.541Z,32.50
2023-06-20T17:01:26.541Z,32.36
2023-06-20T17:04:29.385Z,32.21
2023-06-20T17:07:34.173Z,32.04
2023-06-20T17:10:37.043Z,31.88
2023-06-20T17:13:41.376Z,31.76
2023-06-20T17:16:45.600Z,31.62
2023-06-20T17:19:48.294Z,31.48
2023-06-20T17:22:51.170Z,31.31
2023-06-20T17:25:53.933Z,31.13
2023-06-20T17:28:57.272Z,31.02
2023-06-20T17:32:01.982Z,30.97
2023-06-20T17:35:05.066Z,30.62
2023-06-20T17:38:07.874Z,29.36
2023-06-20T17:41:10.745Z,28.89
2023-06-20T17:44:16.143Z,28.39
2023-06-20T17:47:20.286Z,27.88
2023-06-20T17:50:23.070Z,27.48
2023-06-20T17:53:25.810Z,27.21
2023-06-20T17:56:28.574Z,27.01
2023-06-20T17:59:31.289Z,26.76
2023-06-20T18:02:35.498Z,26.52
2023-06-20T18:05:38.269Z,26.46
2023-06-20T18:08:44.490Z,26.36
2023-06-20T18:11:51.597Z,26.21
2023-06-20T18:14:55.307Z,26.11
2023-06-20T18:17:59.494Z,26.01
2023-06-20T18:21:02.301Z,25.86
2023-06-20T18:24:05.285Z,25.79
2023-06-20T18:27:08.417Z,25.63
2023-06-20T18:30:11.765Z,25.54
2023-06-20T18:33:17.353Z,25.38
2023-06-20T18:36:20.136Z,25.28
2023-06-20T18:39:22.830Z,25.22
2023-06-20T18:42:25.689Z,25.19
2023-06-20T18:45:28.479Z,25.11
2023-06-20T18:48:33.026Z,24.99
2023-06-20T18:51:35.732Z,24.94
2023-06-20T18:54:38.856Z,24.89
2023-06-20T18:57:41.691Z,24.86
2023-06-20T19:00:44.658Z,24.85
2023-06-20T19:03:48.808Z,24.76
2023-06-20T19:06:53.178Z,24.74
2023-06-20T19:09:56.005Z,24.75
2023-06-20T19:12:59.004Z,24.77
2023-06-20T19:16:02.062Z,24.77
2023-06-20T19:19:06.437Z,24.79
2023-06-20T19:22:09.327Z,24.76
2023-06-20T19:25:12.131Z,24.76
2023-06-20T19:28:15.223Z,24.75
2023-06-20T19:31:18.190Z,24.77
2023-06-20T19:34:25.848Z,24.81
2023-06-20T19:37:28.684Z,24.75
2023-06-20T19:40:32.625Z,24.63
2023-06-20T19:43:35.785Z,24.56
2023-06-20T19:46:38.900Z,24.60
2023-06-20T19:49:43.261Z,24.61
2023-06-20T19:52:46.422Z,24.58
2023-06-20T19:55:49.864Z,24.58
2023-06-20T19:58:52.710Z,24.53
2023-06-20T20:01:55.708Z,24.47
2023-06-20T20:04:59.969Z,24.48
2023-06-20T20:08:02.853Z,24.52
2023-06-20T20:11:05.670Z,24.47
2023-06-20T20:14:08.693Z,24.42
2023-06-20T20:17:11.685Z,24.40
2023-06-20T20:20:16.226Z,24.38
2023-06-20T20:23:27.600Z,24.44
2023-06-20T20:26:37.159Z,24.52
2023-06-20T20:29:39.869Z,24.53
2023-06-20T20:32:46.876Z,24.47
2023-06-20T20:35:51.322Z,24.41
2023-06-20T20:38:54.055Z,24.34
2023-06-20T20:41:56.835Z,24.28
2023-06-20T20:44:59.607Z,24.23
2023-06-20T20:48:02.562Z,24.21
2023-06-20T20:51:06.784Z,24.12
2023-06-20T20:54:09.629Z,24.04
2023-06-20T20:57:12.553Z,23.98
2023-06-20T21:00:16.579Z,23.93
2023-06-20T21:03:19.612Z,23.85
2023-06-20T21:06:23.863Z,23.77
2023-06-20T21:09:26.565Z,23.70
2023-06-20T21:12:29.447Z,23.64
2023-06-20T21:15:32.409Z,23.54
2023-06-20T21:18:35.164Z,23.46
2023-06-20T21:21:39.544Z,23.33
2023-06-20T21:24:42.503Z,23.20
2023-06-20T21:27:45.301Z,23.16
2023-06-20T21:30:48.071Z,23.12
2023-06-20T21:33:51.050Z,23.06
2023-06-20T21:36:55.365Z,22.95
2023-06-20T21:39:58.682Z,22.89
2023-06-20T21:43:01.457Z,22.85
2023-06-20T21:46:04.718Z,22.83
2023-06-20T21:49:08.512Z,22.84
2023-06-20T21:52:12.596Z,22.81
2023-06-20T21:55:15.769Z,22.79
2023-06-20T21:58:18.807Z,22.78
2023-06-20T22:01:21.501Z,22.69
2023-06-20T22:04:24.261Z,22.65
2023-06-20T22:07:28.360Z,22.64
2023-06-20T22:10:31.288Z,22.63
2023-06-20T22:13:34.222Z,22.61
2023-06-20T22:16:37.199Z,22.57
2023-06-20T22:19:39.910Z,22.47
2023-06-20T22:22:44.149Z,22.45
2023-06-20T22:25:46.867Z,22.41
2023-06-20T22:28:49.688Z,22.37
2023-06-20T22:31:52.437Z,22.38
2023-06-20T22:34:55.363Z,22.43
2023-06-20T22:37:59.650Z,22.42
2023-06-20T22:41:02.441Z,22.44
2023-06-20T22:44:05.550Z,22.39
2023-06-20T22:47:08.697Z,22.31
2023-06-20T22:50:11.971Z,22.33
2023-06-20T22:53:16.698Z,22.35
2023-06-20T22:56:19.517Z,22.37
2023-06-20T22:59:22.531Z,22.29
2023-06-20T23:02:25.961Z,22.31
2023-06-20T23:05:28.880Z,22.29
2023-06-20T23:08:33.090Z,22.25
2023-06-20T23:11:36.524Z,22.24
2023-06-20T23:14:39.473Z,22.22
2023-06-20T23:17:42.239Z,22.21
2023-06-20T23:20:47.433Z,22.22
2023-06-20T23:23:52.139Z,22.21
2023-06-20T23:26:56.069Z,22.23
2023-06-20T23:30:01.419Z,22.21
2023-06-20T23:33:05.481Z,22.19
2023-06-20T23:36:09.823Z,22.15
2023-06-20T23:39:13.916Z,22.15
2023-06-20T23:42:16.731Z,22.07
2023-06-20T23:45:58.231Z,22.01
2023-06-20T23:49:37.438Z,21.96
2023-06-20T23:52:40.428Z,21.98
2023-06-20T23:55:44.563Z,21.93
2023-06-20T23:58:47.622Z,21.90
